Terminal Aerodrome Forecast
Issued by NWS

Current Version | Previous Version | Graphics & Text | Print | Product List | Glossary On
Versions: 1 2 3 4 5 6 7 8 9 10 11 12 13 14 15 16 17
000
FTUS41 KILN 261100
TAFLUK
TAF
KLUK 261132Z 2612/2712 00000KT 4SM BR SCT250
     FM261300 00000KT P6SM SCT250
     FM261500 17004KT P6SM SCT035 SCT250
     FM262300 23003KT P6SM BKN250
     FM270800 00000KT 4SM BR BKN100=

USA.gov is the U.S. government's official web portal to all federal, state and local government web resources and services.